sensor_id;sensor_type;location;lat;lon;timestamp;P1;durP1;ratioP1;P2;durP2;ratioP2
22256;SDS011;11297;42.686;23.374;2022-09-23T00:01:43;15.93;;;10.73;;
22256;SDS011;11297;42.686;23.374;2022-09-23T00:04:10;9.33;;;8.43;;
22256;SDS011;11297;42.686;23.374;2022-09-23T00:06:35;10.50;;;9.40;;
22256;SDS011;11297;42.686;23.374;2022-09-23T00:09:01;10.37;;;8.97;;
22256;SDS011;11297;42.686;23.374;2022-09-23T00:11:26;10.33;;;9.13;;
22256;SDS011;11297;42.686;23.374;2022-09-23T00:13:54;11.27;;;9.07;;
22256;SDS011;11297;42.686;23.374;2022-09-23T00:16:22;10.63;;;9.53;;
22256;SDS011;11297;42.686;23.374;2022-09-23T00:19:06;12.77;;;9.70;;
22256;SDS011;11297;42.686;23.374;2022-09-23T00:21:32;11.20;;;9.93;;
22256;SDS011;11297;42.686;23.374;2022-09-23T00:23:57;10.87;;;9.27;;
22256;SDS011;11297;42.686;23.374;2022-09-23T00:26:23;9.40;;;8.40;;
22256;SDS011;11297;42.686;23.374;2022-09-23T00:28:48;12.40;;;10.23;;
22256;SDS011;11297;42.686;23.374;2022-09-23T00:31:16;10.77;;;9.30;;
22256;SDS011;11297;42.686;23.374;2022-09-23T00:33:44;13.50;;;11.63;;
22256;SDS011;11297;42.686;23.374;2022-09-23T00:36:10;11.57;;;10.07;;
22256;SDS011;11297;42.686;23.374;2022-09-23T00:38:40;10.70;;;9.70;;
22256;SDS011;11297;42.686;23.374;2022-09-23T00:41:07;10.77;;;9.67;;
22256;SDS011;11297;42.686;23.374;2022-09-23T00:43:45;11.37;;;10.20;;
22256;SDS011;11297;42.686;23.374;2022-09-23T00:46:35;11.50;;;10.30;;
22256;SDS011;11297;42.686;23.374;2022-09-23T00:51:54;14.13;;;11.77;;
22256;SDS011;11297;42.686;23.374;2022-09-23T00:54:25;14.57;;;12.13;;
22256;SDS011;11297;42.686;23.374;2022-09-23T00:56:52;11.90;;;10.63;;
22256;SDS011;11297;42.686;23.374;2022-09-23T00:59:18;18.60;;;13.43;;
22256;SDS011;11297;42.686;23.374;2022-09-23T01:01:44;15.93;;;12.40;;
22256;SDS011;11297;42.686;23.374;2022-09-23T01:04:10;11.33;;;10.13;;
22256;SDS011;11297;42.686;23.374;2022-09-23T01:06:36;11.87;;;10.43;;
22256;SDS011;11297;42.686;23.374;2022-09-23T01:09:02;11.43;;;9.53;;
22256;SDS011;11297;42.686;23.374;2022-09-23T01:11:29;10.83;;;9.83;;
22256;SDS011;11297;42.686;23.374;2022-09-23T01:16:32;10.80;;;9.23;;
22256;SDS011;11297;42.686;23.374;2022-09-23T01:21:52;12.37;;;10.00;;
22256;SDS011;11297;42.686;23.374;2022-09-23T01:27:06;10.40;;;9.30;;
22256;SDS011;11297;42.686;23.374;2022-09-23T01:32:35;13.20;;;9.37;;
22256;SDS011;11297;42.686;23.374;2022-09-23T01:43:20;10.00;;;8.73;;
22256;SDS011;11297;42.686;23.374;2022-09-23T01:45:53;14.53;;;10.60;;
22256;SDS011;11297;42.686;23.374;2022-09-23T01:53:49;12.17;;;10.00;;
22256;SDS011;11297;42.686;23.374;2022-09-23T01:56:24;13.27;;;9.77;;
22256;SDS011;11297;42.686;23.374;2022-09-23T01:58:56;21.67;;;11.27;;
22256;SDS011;11297;42.686;23.374;2022-09-23T02:01:33;13.00;;;10.50;;
22256;SDS011;11297;42.686;23.374;2022-09-23T02:04:24;11.53;;;9.57;;
22256;SDS011;11297;42.686;23.374;2022-09-23T02:06:56;15.97;;;11.10;;
22256;SDS011;11297;42.686;23.374;2022-09-23T02:09:28;12.37;;;10.23;;
22256;SDS011;11297;42.686;23.374;2022-09-23T02:12:00;12.17;;;9.57;;
22256;SDS011;11297;42.686;23.374;2022-09-23T02:14:48;13.03;;;11.00;;
22256;SDS011;11297;42.686;23.374;2022-09-23T02:17:25;21.37;;;14.03;;
22256;SDS011;11297;42.686;23.374;2022-09-23T02:20:02;21.57;;;13.03;;
22256;SDS011;11297;42.686;23.374;2022-09-23T02:25:10;14.23;;;11.43;;
22256;SDS011;11297;42.686;23.374;2022-09-23T02:27:41;14.50;;;10.73;;
22256;SDS011;11297;42.686;23.374;2022-09-23T02:30:17;11.23;;;10.03;;
22256;SDS011;11297;42.686;23.374;2022-09-23T02:41:12;12.40;;;10.93;;
22256;SDS011;11297;42.686;23.374;2022-09-23T02:43:44;11.77;;;10.23;;
22256;SDS011;11297;42.686;23.374;2022-09-23T02:46:10;11.40;;;10.20;;
22256;SDS011;11297;42.686;23.374;2022-09-23T02:48:47;13.67;;;9.73;;
22256;SDS011;11297;42.686;23.374;2022-09-23T02:51:17;13.30;;;10.27;;
22256;SDS011;11297;42.686;23.374;2022-09-23T02:53:43;12.30;;;9.73;;
22256;SDS011;11297;42.686;23.374;2022-09-23T02:56:17;12.07;;;9.23;;
22256;SDS011;11297;42.686;23.374;2022-09-23T02:58:44;7.50;;;6.63;;
22256;SDS011;11297;42.686;23.374;2022-09-23T03:06:46;6.67;;;5.90;;
22256;SDS011;11297;42.686;23.374;2022-09-23T03:09:35;7.47;;;6.30;;
22256;SDS011;11297;42.686;23.374;2022-09-23T03:12:19;7.07;;;6.37;;
22256;SDS011;11297;42.686;23.374;2022-09-23T03:18:09;6.57;;;5.90;;
22256;SDS011;11297;42.686;23.374;2022-09-23T03:20:39;6.90;;;6.20;;
22256;SDS011;11297;42.686;23.374;2022-09-23T03:23:13;6.30;;;5.70;;
22256;SDS011;11297;42.686;23.374;2022-09-23T03:25:43;9.47;;;6.67;;
22256;SDS011;11297;42.686;23.374;2022-09-23T03:28:11;7.87;;;7.07;;
22256;SDS011;11297;42.686;23.374;2022-09-23T03:30:40;7.50;;;6.40;;
22256;SDS011;11297;42.686;23.374;2022-09-23T03:33:08;11.77;;;7.53;;
22256;SDS011;11297;42.686;23.374;2022-09-23T03:35:43;7.37;;;6.67;;
22256;SDS011;11297;42.686;23.374;2022-09-23T03:38:34;9.73;;;7.37;;
22256;SDS011;11297;42.686;23.374;2022-09-23T03:41:04;7.17;;;6.40;;
22256;SDS011;11297;42.686;23.374;2022-09-23T03:43:35;12.77;;;9.03;;
22256;SDS011;11297;42.686;23.374;2022-09-23T03:46:00;8.63;;;7.17;;
22256;SDS011;11297;42.686;23.374;2022-09-23T03:48:26;8.83;;;7.10;;
22256;SDS011;11297;42.686;23.374;2022-09-23T03:50:51;9.07;;;6.87;;
22256;SDS011;11297;42.686;23.374;2022-09-23T03:53:17;8.80;;;7.90;;
22256;SDS011;11297;42.686;23.374;2022-09-23T03:55:45;8.67;;;7.77;;
22256;SDS011;11297;42.686;23.374;2022-09-23T03:58:11;11.07;;;9.87;;
22256;SDS011;11297;42.686;23.374;2022-09-23T04:00:36;9.67;;;8.23;;
22256;SDS011;11297;42.686;23.374;2022-09-23T04:03:02;8.70;;;7.37;;
22256;SDS011;11297;42.686;23.374;2022-09-23T04:05:28;11.23;;;10.03;;
22256;SDS011;11297;42.686;23.374;2022-09-23T04:07:53;10.03;;;8.97;;
22256;SDS011;11297;42.686;23.374;2022-09-23T04:10:19;10.90;;;9.73;;
22256;SDS011;11297;42.686;23.374;2022-09-23T04:12:44;12.50;;;9.13;;
22256;SDS011;11297;42.686;23.374;2022-09-23T04:15:10;12.43;;;10.43;;
22256;SDS011;11297;42.686;23.374;2022-09-23T04:17:35;12.23;;;11.00;;
22256;SDS011;11297;42.686;23.374;2022-09-23T04:20:02;11.17;;;10.00;;
22256;SDS011;11297;42.686;23.374;2022-09-23T04:22:27;8.67;;;7.83;;
22256;SDS011;11297;42.686;23.374;2022-09-23T04:24:53;12.33;;;10.97;;
22256;SDS011;11297;42.686;23.374;2022-09-23T04:27:18;12.37;;;9.70;;
22256;SDS011;11297;42.686;23.374;2022-09-23T04:29:44;9.20;;;7.70;;
22256;SDS011;11297;42.686;23.374;2022-09-23T04:32:09;12.50;;;9.33;;
22256;SDS011;11297;42.686;23.374;2022-09-23T04:34:35;13.40;;;9.60;;
22256;SDS011;11297;42.686;23.374;2022-09-23T04:37:00;17.10;;;11.70;;
22256;SDS011;11297;42.686;23.374;2022-09-23T04:39:25;11.73;;;9.43;;
22256;SDS011;11297;42.686;23.374;2022-09-23T04:41:51;16.77;;;12.40;;
22256;SDS011;11297;42.686;23.374;2022-09-23T04:44:16;15.43;;;12.43;;
22256;SDS011;11297;42.686;23.374;2022-09-23T04:46:43;16.97;;;12.33;;
22256;SDS011;11297;42.686;23.374;2022-09-23T04:49:11;21.23;;;16.13;;
22256;SDS011;11297;42.686;23.374;2022-09-23T04:51:37;18.73;;;12.53;;
22256;SDS011;11297;42.686;23.374;2022-09-23T04:54:04;14.17;;;10.33;;
22256;SDS011;11297;42.686;23.374;2022-09-23T04:56:30;16.70;;;13.63;;
22256;SDS011;11297;42.686;23.374;2022-09-23T04:58:58;12.90;;;9.10;;
22256;SDS011;11297;42.686;23.374;2022-09-23T05:01:26;18.00;;;11.03;;
22256;SDS011;11297;42.686;23.374;2022-09-23T05:03:54;14.80;;;12.20;;
22256;SDS011;11297;42.686;23.374;2022-09-23T05:06:22;16.37;;;14.03;;
22256;SDS011;11297;42.686;23.374;2022-09-23T05:08:49;15.03;;;12.03;;
22256;SDS011;11297;42.686;23.374;2022-09-23T05:11:17;12.10;;;10.87;;
22256;SDS011;11297;42.686;23.374;2022-09-23T05:13:43;23.93;;;13.20;;
22256;SDS011;11297;42.686;23.374;2022-09-23T05:16:10;11.50;;;8.93;;
22256;SDS011;11297;42.686;23.374;2022-09-23T05:18:39;12.67;;;8.93;;
22256;SDS011;11297;42.686;23.374;2022-09-23T05:21:06;11.07;;;9.67;;
22256;SDS011;11297;42.686;23.374;2022-09-23T05:23:34;9.77;;;8.30;;
22256;SDS011;11297;42.686;23.374;2022-09-23T05:26:00;12.00;;;10.00;;
22256;SDS011;11297;42.686;23.374;2022-09-23T05:28:28;19.60;;;10.90;;
22256;SDS011;11297;42.686;23.374;2022-09-23T05:31:00;10.13;;;8.40;;
22256;SDS011;11297;42.686;23.374;2022-09-23T05:33:47;7.93;;;7.13;;
22256;SDS011;11297;42.686;23.374;2022-09-23T05:36:16;7.97;;;7.17;;
22256;SDS011;11297;42.686;23.374;2022-09-23T05:38:42;7.90;;;7.20;;
22256;SDS011;11297;42.686;23.374;2022-09-23T05:41:09;9.77;;;7.97;;
22256;SDS011;11297;42.686;23.374;2022-09-23T05:43:36;8.70;;;7.83;;
22256;SDS011;11297;42.686;23.374;2022-09-23T05:48:41;8.97;;;8.17;;
22256;SDS011;11297;42.686;23.374;2022-09-23T05:51:08;11.30;;;8.80;;
22256;SDS011;11297;42.686;23.374;2022-09-23T05:53:37;9.47;;;8.43;;
22256;SDS011;11297;42.686;23.374;2022-09-23T05:56:04;15.80;;;9.30;;
22256;SDS011;11297;42.686;23.374;2022-09-23T05:58:30;9.10;;;8.13;;
22256;SDS011;11297;42.686;23.374;2022-09-23T06:00:55;9.80;;;8.43;;
22256;SDS011;11297;42.686;23.374;2022-09-23T06:03:21;8.40;;;7.60;;
22256;SDS011;11297;42.686;23.374;2022-09-23T06:05:51;10.57;;;9.47;;
22256;SDS011;11297;42.686;23.374;2022-09-23T06:08:18;9.17;;;8.27;;
22256;SDS011;11297;42.686;23.374;2022-09-23T06:10:44;7.67;;;6.93;;
22256;SDS011;11297;42.686;23.374;2022-09-23T06:13:10;8.13;;;7.40;;
22256;SDS011;11297;42.686;23.374;2022-09-23T06:15:36;10.97;;;8.80;;
22256;SDS011;11297;42.686;23.374;2022-09-23T06:18:03;8.93;;;8.07;;
22256;SDS011;11297;42.686;23.374;2022-09-23T06:20:29;8.70;;;7.80;;
22256;SDS011;11297;42.686;23.374;2022-09-23T06:23:00;9.70;;;7.87;;
22256;SDS011;11297;42.686;23.374;2022-09-23T06:25:27;7.27;;;6.57;;
22256;SDS011;11297;42.686;23.374;2022-09-23T06:27:53;8.27;;;7.10;;
22256;SDS011;11297;42.686;23.374;2022-09-23T06:30:20;7.17;;;6.43;;
22256;SDS011;11297;42.686;23.374;2022-09-23T06:32:49;7.30;;;6.70;;
22256;SDS011;11297;42.686;23.374;2022-09-23T06:35:16;7.20;;;6.60;;
22256;SDS011;11297;42.686;23.374;2022-09-23T06:37:45;6.87;;;6.27;;
22256;SDS011;11297;42.686;23.374;2022-09-23T06:40:12;8.70;;;6.87;;
22256;SDS011;11297;42.686;23.374;2022-09-23T06:42:40;7.00;;;6.40;;
22256;SDS011;11297;42.686;23.374;2022-09-23T06:45:07;6.87;;;6.27;;
22256;SDS011;11297;42.686;23.374;2022-09-23T06:47:37;6.97;;;6.37;;
22256;SDS011;11297;42.686;23.374;2022-09-23T06:50:03;8.23;;;7.13;;
22256;SDS011;11297;42.686;23.374;2022-09-23T06:52:29;7.43;;;6.73;;
22256;SDS011;11297;42.686;23.374;2022-09-23T06:54:55;8.07;;;7.27;;
22256;SDS011;11297;42.686;23.374;2022-09-23T06:57:20;7.33;;;6.63;;
22256;SDS011;11297;42.686;23.374;2022-09-23T06:59:46;7.07;;;6.40;;
22256;SDS011;11297;42.686;23.374;2022-09-23T07:02:11;7.50;;;6.80;;
22256;SDS011;11297;42.686;23.374;2022-09-23T07:04:37;10.57;;;6.47;;
22256;SDS011;11297;42.686;23.374;2022-09-23T07:07:02;9.43;;;7.00;;
22256;SDS011;11297;42.686;23.374;2022-09-23T07:09:28;6.83;;;6.20;;
22256;SDS011;11297;42.686;23.374;2022-09-23T07:11:53;8.13;;;6.40;;
22256;SDS011;11297;42.686;23.374;2022-09-23T07:14:18;7.87;;;7.13;;
22256;SDS011;11297;42.686;23.374;2022-09-23T07:16:47;7.13;;;6.10;;
22256;SDS011;11297;42.686;23.374;2022-09-23T07:19:12;5.83;;;5.33;;
22256;SDS011;11297;42.686;23.374;2022-09-23T07:21:38;6.43;;;5.70;;
22256;SDS011;11297;42.686;23.374;2022-09-23T07:24:03;6.20;;;5.70;;
22256;SDS011;11297;42.686;23.374;2022-09-23T07:26:29;8.60;;;6.20;;
22256;SDS011;11297;42.686;23.374;2022-09-23T07:28:58;7.13;;;6.53;;
22256;SDS011;11297;42.686;23.374;2022-09-23T07:31:29;6.77;;;6.17;;
22256;SDS011;11297;42.686;23.374;2022-09-23T07:33:56;7.70;;;7.00;;
22256;SDS011;11297;42.686;23.374;2022-09-23T07:36:22;6.00;;;5.50;;
22256;SDS011;11297;42.686;23.374;2022-09-23T07:38:48;6.90;;;5.07;;
22256;SDS011;11297;42.686;23.374;2022-09-23T07:41:15;5.87;;;5.37;;
22256;SDS011;11297;42.686;23.374;2022-09-23T07:43:43;7.17;;;6.47;;
22256;SDS011;11297;42.686;23.374;2022-09-23T07:46:11;5.50;;;5.10;;
22256;SDS011;11297;42.686;23.374;2022-09-23T07:48:39;5.77;;;5.27;;
22256;SDS011;11297;42.686;23.374;2022-09-23T07:51:08;5.43;;;4.93;;
22256;SDS011;11297;42.686;23.374;2022-09-23T07:53:35;6.70;;;6.00;;
22256;SDS011;11297;42.686;23.374;2022-09-23T07:56:01;6.20;;;5.60;;
22256;SDS011;11297;42.686;23.374;2022-09-23T07:58:29;6.10;;;5.60;;
22256;SDS011;11297;42.686;23.374;2022-09-23T08:00:59;7.27;;;5.20;;
22256;SDS011;11297;42.686;23.374;2022-09-23T08:03:26;4.77;;;4.27;;
22256;SDS011;11297;42.686;23.374;2022-09-23T08:05:51;6.57;;;4.40;;
22256;SDS011;11297;42.686;23.374;2022-09-23T08:08:17;5.33;;;4.83;;
22256;SDS011;11297;42.686;23.374;2022-09-23T08:10:42;5.17;;;4.67;;
22256;SDS011;11297;42.686;23.374;2022-09-23T08:13:08;5.90;;;4.90;;
22256;SDS011;11297;42.686;23.374;2022-09-23T08:15:33;7.50;;;6.90;;
22256;SDS011;11297;42.686;23.374;2022-09-23T08:17:59;5.93;;;5.33;;
22256;SDS011;11297;42.686;23.374;2022-09-23T08:20:25;4.53;;;4.20;;
22256;SDS011;11297;42.686;23.374;2022-09-23T08:23:20;6.30;;;4.13;;
22256;SDS011;11297;42.686;23.374;2022-09-23T08:25:46;4.60;;;4.17;;
22256;SDS011;11297;42.686;23.374;2022-09-23T08:28:14;9.67;;;4.97;;
22256;SDS011;11297;42.686;23.374;2022-09-23T08:30:43;4.87;;;4.47;;
22256;SDS011;11297;42.686;23.374;2022-09-23T08:33:12;4.47;;;3.87;;
22256;SDS011;11297;42.686;23.374;2022-09-23T08:35:38;4.33;;;3.93;;
22256;SDS011;11297;42.686;23.374;2022-09-23T08:38:03;13.40;;;7.63;;
22256;SDS011;11297;42.686;23.374;2022-09-23T08:40:31;4.33;;;4.03;;
22256;SDS011;11297;42.686;23.374;2022-09-23T08:42:59;9.80;;;6.33;;
22256;SDS011;11297;42.686;23.374;2022-09-23T08:45:25;7.87;;;5.77;;
22256;SDS011;11297;42.686;23.374;2022-09-23T08:47:53;6.03;;;4.70;;
22256;SDS011;11297;42.686;23.374;2022-09-23T08:50:28;4.70;;;4.00;;
22256;SDS011;11297;42.686;23.374;2022-09-23T08:53:28;6.90;;;4.30;;
22256;SDS011;11297;42.686;23.374;2022-09-23T08:56:04;4.43;;;4.00;;
22256;SDS011;11297;42.686;23.374;2022-09-23T09:03:44;10.00;;;4.60;;
22256;SDS011;11297;42.686;23.374;2022-09-23T09:06:19;4.40;;;4.00;;
22256;SDS011;11297;42.686;23.374;2022-09-23T09:08:54;7.23;;;4.00;;
22256;SDS011;11297;42.686;23.374;2022-09-23T09:11:27;5.23;;;3.37;;
22256;SDS011;11297;42.686;23.374;2022-09-23T09:19:20;4.23;;;3.17;;
22256;SDS011;11297;42.686;23.374;2022-09-23T09:22:07;2.87;;;2.67;;
22256;SDS011;11297;42.686;23.374;2022-09-23T09:24:45;5.93;;;3.33;;
22256;SDS011;11297;42.686;23.374;2022-09-23T09:27:13;3.17;;;2.87;;
22256;SDS011;11297;42.686;23.374;2022-09-23T09:29:43;3.67;;;3.03;;
22256;SDS011;11297;42.686;23.374;2022-09-23T09:34:52;3.60;;;3.30;;
22256;SDS011;11297;42.686;23.374;2022-09-23T09:37:45;3.27;;;2.90;;
22256;SDS011;11297;42.686;23.374;2022-09-23T09:40:11;3.30;;;2.77;;
22256;SDS011;11297;42.686;23.374;2022-09-23T09:42:38;5.93;;;3.53;;
22256;SDS011;11297;42.686;23.374;2022-09-23T09:47:58;3.33;;;3.00;;
22256;SDS011;11297;42.686;23.374;2022-09-23T09:50:44;3.20;;;3.00;;
22256;SDS011;11297;42.686;23.374;2022-09-23T09:53:23;2.83;;;2.60;;
22256;SDS011;11297;42.686;23.374;2022-09-23T09:55:58;5.77;;;2.93;;
22256;SDS011;11297;42.686;23.374;2022-09-23T10:01:43;3.60;;;2.70;;
22256;SDS011;11297;42.686;23.374;2022-09-23T10:04:08;4.63;;;2.90;;
22256;SDS011;11297;42.686;23.374;2022-09-23T10:07:08;3.80;;;2.83;;
22256;SDS011;11297;42.686;23.374;2022-09-23T10:09:36;5.13;;;4.00;;
22256;SDS011;11297;42.686;23.374;2022-09-23T10:12:13;4.43;;;3.90;;
22256;SDS011;11297;42.686;23.374;2022-09-23T10:14:43;1.83;;;1.73;;
22256;SDS011;11297;42.686;23.374;2022-09-23T10:20:02;3.07;;;2.30;;
22256;SDS011;11297;42.686;23.374;2022-09-23T10:22:33;2.73;;;2.37;;
22256;SDS011;11297;42.686;23.374;2022-09-23T10:25:08;2.50;;;2.30;;
22256;SDS011;11297;42.686;23.374;2022-09-23T10:27:41;2.50;;;1.80;;
22256;SDS011;11297;42.686;23.374;2022-09-23T10:32:42;1.93;;;1.73;;
22256;SDS011;11297;42.686;23.374;2022-09-23T10:37:48;4.13;;;2.30;;
22256;SDS011;11297;42.686;23.374;2022-09-23T10:46:07;4.40;;;2.57;;
22256;SDS011;11297;42.686;23.374;2022-09-23T11:16:53;2.10;;;1.90;;
22256;SDS011;11297;42.686;23.374;2022-09-23T11:22:30;2.07;;;1.70;;
22256;SDS011;11297;42.686;23.374;2022-09-23T11:30:15;1.83;;;1.70;;
22256;SDS011;11297;42.686;23.374;2022-09-23T11:37:57;2.17;;;1.90;;
22256;SDS011;11297;42.686;23.374;2022-09-23T11:40:30;2.00;;;1.90;;
22256;SDS011;11297;42.686;23.374;2022-09-23T11:45:46;2.20;;;2.00;;
22256;SDS011;11297;42.686;23.374;2022-09-23T11:48:34;2.03;;;1.93;;
22256;SDS011;11297;42.686;23.374;2022-09-23T11:51:07;2.03;;;1.93;;
22256;SDS011;11297;42.686;23.374;2022-09-23T11:56:32;2.70;;;2.03;;
22256;SDS011;11297;42.686;23.374;2022-09-23T11:59:02;2.13;;;1.97;;
22256;SDS011;11297;42.686;23.374;2022-09-23T12:02:18;2.63;;;2.10;;
22256;SDS011;11297;42.686;23.374;2022-09-23T12:04:34;1.80;;;1.67;;
22256;SDS011;11297;42.686;23.374;2022-09-23T12:09:36;3.07;;;2.07;;
22256;SDS011;11297;42.686;23.374;2022-09-23T12:14:54;2.60;;;2.40;;
22256;SDS011;11297;42.686;23.374;2022-09-23T12:20:04;2.30;;;2.10;;
22256;SDS011;11297;42.686;23.374;2022-09-23T12:28:26;5.40;;;2.40;;
22256;SDS011;11297;42.686;23.374;2022-09-23T12:30:56;2.53;;;2.00;;
22256;SDS011;11297;42.686;23.374;2022-09-23T12:33:27;3.90;;;2.40;;
22256;SDS011;11297;42.686;23.374;2022-09-23T12:36:03;1.50;;;1.40;;
22256;SDS011;11297;42.686;23.374;2022-09-23T12:41:17;2.83;;;2.63;;
22256;SDS011;11297;42.686;23.374;2022-09-23T12:43:52;5.60;;;3.47;;
22256;SDS011;11297;42.686;23.374;2022-09-23T12:46:21;4.03;;;3.63;;
22256;SDS011;11297;42.686;23.374;2022-09-23T12:51:29;2.80;;;2.60;;
22256;SDS011;11297;42.686;23.374;2022-09-23T13:01:40;2.50;;;1.80;;
22256;SDS011;11297;42.686;23.374;2022-09-23T13:04:15;2.40;;;2.20;;
22256;SDS011;11297;42.686;23.374;2022-09-23T13:07:27;2.30;;;2.10;;
22256;SDS011;11297;42.686;23.374;2022-09-23T13:10:05;2.60;;;2.00;;
22256;SDS011;11297;42.686;23.374;2022-09-23T13:12:31;2.20;;;2.07;;
22256;SDS011;11297;42.686;23.374;2022-09-23T13:15:02;2.20;;;2.00;;
22256;SDS011;11297;42.686;23.374;2022-09-23T13:17:38;4.87;;;2.10;;
22256;SDS011;11297;42.686;23.374;2022-09-23T13:25:33;3.53;;;2.00;;
22256;SDS011;11297;42.686;23.374;2022-09-23T13:28:03;1.60;;;1.50;;
22256;SDS011;11297;42.686;23.374;2022-09-23T13:30:46;4.40;;;3.30;;
22256;SDS011;11297;42.686;23.374;2022-09-23T13:33:15;2.33;;;2.13;;
22256;SDS011;11297;42.686;23.374;2022-09-23T13:35:48;2.27;;;2.07;;
22256;SDS011;11297;42.686;23.374;2022-09-23T13:40:50;3.17;;;2.30;;
22256;SDS011;11297;42.686;23.374;2022-09-23T13:45:56;2.00;;;1.80;;
22256;SDS011;11297;42.686;23.374;2022-09-23T13:48:24;2.30;;;2.10;;
22256;SDS011;11297;42.686;23.374;2022-09-23T13:50:52;3.93;;;2.10;;
22256;SDS011;11297;42.686;23.374;2022-09-23T13:53:27;3.60;;;2.13;;
22256;SDS011;11297;42.686;23.374;2022-09-23T13:58:46;2.37;;;2.13;;
22256;SDS011;11297;42.686;23.374;2022-09-23T14:03:47;1.80;;;1.70;;
22256;SDS011;11297;42.686;23.374;2022-09-23T14:06:13;4.13;;;3.00;;
22256;SDS011;11297;42.686;23.374;2022-09-23T14:08:42;1.90;;;1.80;;
22256;SDS011;11297;42.686;23.374;2022-09-23T14:11:13;2.37;;;2.17;;
22256;SDS011;11297;42.686;23.374;2022-09-23T14:14:00;2.37;;;2.17;;
22256;SDS011;11297;42.686;23.374;2022-09-23T14:16:31;2.30;;;1.93;;
22256;SDS011;11297;42.686;23.374;2022-09-23T14:19:01;2.97;;;2.67;;
22256;SDS011;11297;42.686;23.374;2022-09-23T14:26:34;2.43;;;2.23;;
22256;SDS011;11297;42.686;23.374;2022-09-23T14:29:00;3.83;;;2.90;;
22256;SDS011;11297;42.686;23.374;2022-09-23T14:31:26;4.30;;;3.87;;
22256;SDS011;11297;42.686;23.374;2022-09-23T14:33:51;5.03;;;4.10;;
22256;SDS011;11297;42.686;23.374;2022-09-23T14:36:17;2.53;;;1.97;;
22256;SDS011;11297;42.686;23.374;2022-09-23T14:39:09;2.73;;;1.37;;
22256;SDS011;11297;42.686;23.374;2022-09-23T14:41:40;2.00;;;1.90;;
22256;SDS011;11297;42.686;23.374;2022-09-23T14:44:19;1.90;;;1.70;;
22256;SDS011;11297;42.686;23.374;2022-09-23T14:47:04;3.97;;;3.67;;
22256;SDS011;11297;42.686;23.374;2022-09-23T14:49:30;2.30;;;2.10;;
22256;SDS011;11297;42.686;23.374;2022-09-23T14:51:56;2.10;;;2.00;;
22256;SDS011;11297;42.686;23.374;2022-09-23T14:56:56;1.67;;;1.57;;
22256;SDS011;11297;42.686;23.374;2022-09-23T14:59:26;2.63;;;2.40;;
22256;SDS011;11297;42.686;23.374;2022-09-23T15:01:56;2.93;;;2.07;;
22256;SDS011;11297;42.686;23.374;2022-09-23T15:06:49;2.37;;;2.17;;
22256;SDS011;11297;42.686;23.374;2022-09-23T15:09:16;4.53;;;3.90;;
22256;SDS011;11297;42.686;23.374;2022-09-23T15:11:49;6.67;;;3.53;;
22256;SDS011;11297;42.686;23.374;2022-09-23T15:14:15;5.90;;;2.67;;
22256;SDS011;11297;42.686;23.374;2022-09-23T15:16:42;2.60;;;2.40;;
22256;SDS011;11297;42.686;23.374;2022-09-23T15:19:11;5.00;;;4.50;;
22256;SDS011;11297;42.686;23.374;2022-09-23T15:21:42;3.17;;;2.53;;
22256;SDS011;11297;42.686;23.374;2022-09-23T15:24:32;3.03;;;2.73;;
22256;SDS011;11297;42.686;23.374;2022-09-23T15:26:56;5.77;;;2.77;;
22256;SDS011;11297;42.686;23.374;2022-09-23T15:29:24;3.70;;;2.90;;
22256;SDS011;11297;42.686;23.374;2022-09-23T15:31:51;4.50;;;2.63;;
22256;SDS011;11297;42.686;23.374;2022-09-23T15:34:17;3.03;;;2.57;;
22256;SDS011;11297;42.686;23.374;2022-09-23T15:36:45;3.60;;;3.30;;
22256;SDS011;11297;42.686;23.374;2022-09-23T15:39:12;3.27;;;2.90;;
22256;SDS011;11297;42.686;23.374;2022-09-23T15:41:38;4.03;;;2.83;;
22256;SDS011;11297;42.686;23.374;2022-09-23T15:44:04;6.87;;;3.87;;
22256;SDS011;11297;42.686;23.374;2022-09-23T15:46:37;4.70;;;2.93;;
22256;SDS011;11297;42.686;23.374;2022-09-23T15:49:05;3.80;;;3.03;;
22256;SDS011;11297;42.686;23.374;2022-09-23T15:51:36;3.63;;;2.60;;
22256;SDS011;11297;42.686;23.374;2022-09-23T15:54:02;3.67;;;3.30;;
22256;SDS011;11297;42.686;23.374;2022-09-23T15:56:33;6.40;;;5.80;;
22256;SDS011;11297;42.686;23.374;2022-09-23T15:58:58;3.70;;;2.97;;
22256;SDS011;11297;42.686;23.374;2022-09-23T16:01:29;3.80;;;3.47;;
22256;SDS011;11297;42.686;23.374;2022-09-23T16:03:57;4.60;;;4.20;;
22256;SDS011;11297;42.686;23.374;2022-09-23T16:06:26;3.93;;;3.10;;
22256;SDS011;11297;42.686;23.374;2022-09-23T16:08:52;6.10;;;3.10;;
22256;SDS011;11297;42.686;23.374;2022-09-23T16:11:19;5.27;;;3.33;;
22256;SDS011;11297;42.686;23.374;2022-09-23T16:13:48;5.73;;;5.23;;
22256;SDS011;11297;42.686;23.374;2022-09-23T16:16:14;4.53;;;3.77;;
22256;SDS011;11297;42.686;23.374;2022-09-23T16:18:41;7.57;;;3.80;;
22256;SDS011;11297;42.686;23.374;2022-09-23T16:21:11;6.83;;;4.43;;
22256;SDS011;11297;42.686;23.374;2022-09-23T16:23:38;4.77;;;3.50;;
22256;SDS011;11297;42.686;23.374;2022-09-23T16:26:12;23.53;;;15.43;;
22256;SDS011;11297;42.686;23.374;2022-09-23T16:28:41;6.13;;;5.00;;
22256;SDS011;11297;42.686;23.374;2022-09-23T16:31:08;13.23;;;7.17;;
22256;SDS011;11297;42.686;23.374;2022-09-23T16:33:35;51.40;;;27.83;;
22256;SDS011;11297;42.686;23.374;2022-09-23T16:36:02;54.83;;;31.00;;
22256;SDS011;11297;42.686;23.374;2022-09-23T16:38:28;18.93;;;12.03;;
22256;SDS011;11297;42.686;23.374;2022-09-23T16:40:55;5.63;;;4.57;;
22256;SDS011;11297;42.686;23.374;2022-09-23T16:43:24;5.57;;;3.70;;
22256;SDS011;11297;42.686;23.374;2022-09-23T16:45:53;4.40;;;3.57;;
22256;SDS011;11297;42.686;23.374;2022-09-23T16:48:18;5.97;;;4.13;;
22256;SDS011;11297;42.686;23.374;2022-09-23T16:50:45;5.60;;;3.90;;
22256;SDS011;11297;42.686;23.374;2022-09-23T16:53:11;4.23;;;3.50;;
22256;SDS011;11297;42.686;23.374;2022-09-23T16:55:40;5.93;;;4.77;;
22256;SDS011;11297;42.686;23.374;2022-09-23T16:58:05;4.37;;;3.97;;
22256;SDS011;11297;42.686;23.374;2022-09-23T17:00:31;4.97;;;3.37;;
22256;SDS011;11297;42.686;23.374;2022-09-23T17:03:15;4.20;;;3.73;;
22256;SDS011;11297;42.686;23.374;2022-09-23T17:05:59;7.30;;;3.50;;
22256;SDS011;11297;42.686;23.374;2022-09-23T17:08:25;3.40;;;3.10;;
22256;SDS011;11297;42.686;23.374;2022-09-23T17:10:57;4.50;;;4.00;;
22256;SDS011;11297;42.686;23.374;2022-09-23T17:13:25;5.93;;;4.43;;
22256;SDS011;11297;42.686;23.374;2022-09-23T17:15:51;7.10;;;4.07;;
22256;SDS011;11297;42.686;23.374;2022-09-23T17:18:18;5.43;;;3.40;;
22256;SDS011;11297;42.686;23.374;2022-09-23T17:20:54;3.97;;;3.57;;
22256;SDS011;11297;42.686;23.374;2022-09-23T17:23:27;3.57;;;3.27;;
22256;SDS011;11297;42.686;23.374;2022-09-23T17:25:55;5.93;;;4.70;;
22256;SDS011;11297;42.686;23.374;2022-09-23T17:28:21;3.77;;;3.43;;
22256;SDS011;11297;42.686;23.374;2022-09-23T17:30:48;5.17;;;4.73;;
22256;SDS011;11297;42.686;23.374;2022-09-23T17:33:15;3.90;;;3.57;;
22256;SDS011;11297;42.686;23.374;2022-09-23T17:35:41;8.00;;;4.60;;
22256;SDS011;11297;42.686;23.374;2022-09-23T17:38:06;5.90;;;4.60;;
22256;SDS011;11297;42.686;23.374;2022-09-23T17:40:32;5.00;;;4.43;;
22256;SDS011;11297;42.686;23.374;2022-09-23T17:42:59;7.07;;;4.40;;
22256;SDS011;11297;42.686;23.374;2022-09-23T17:45:25;4.80;;;4.40;;
22256;SDS011;11297;42.686;23.374;2022-09-23T17:47:50;6.07;;;4.23;;